Time;durP1;ratioP1;P1;durP2;ratioP2;P2;SDS_P1;SDS_P2;PMS_P1;PMS_P2;Temp;Humidity;BMP_temperature;BMP_pressure;BME280_temperature;BME280_humidity;BME280_pressure;Samples;Min_cycle;Max_cycle;Signal;HPM_P1;HPM_P2
2022/08/30 00:01:23;;;;;;;2.47;2.15;;;;;;;;;;5097971;28;20265;-65
2022/08/30 00:03:53;;;;;;;3.35;2.47;;;;;;;;;;5098039;28;20528;-65
2022/08/30 00:06:23;;;;;;;2.50;2.30;;;;;;;;;;5097799;28;20199;-65
2022/08/30 00:08:51;;;;;;;2.85;2.50;;;;;;;;;;5097269;28;20294;-65
2022/08/30 00:11:20;;;;;;;2.40;2.20;;;;;;;;;;5097735;28;20540;-65
2022/08/30 00:13:48;;;;;;;2.50;2.30;;;;;;;;;;5096983;28;20199;-65
2022/08/30 00:16:16;;;;;;;2.50;2.30;;;;;;;;;;5097033;28;20622;-65
2022/08/30 00:18:43;;;;;;;3.28;2.50;;;;;;;;;;5097664;28;20229;-65
2022/08/30 00:21:12;;;;;;;3.25;2.20;;;;;;;;;;5097890;28;20214;-65
2022/08/30 00:23:41;;;;;;;2.58;2.38;;;;;;;;;;5097539;28;20492;-65
2022/08/30 00:26:08;;;;;;;3.00;2.40;;;;;;;;;;5097576;28;20204;-65
2022/08/30 00:28:36;;;;;;;2.28;2.08;;;;;;;;;;5097250;28;20507;-65
2022/08/30 00:31:04;;;;;;;2.42;2.22;;;;;;;;;;5097870;28;20211;-65
2022/08/30 00:33:31;;;;;;;3.50;2.40;;;;;;;;;;5097248;28;20204;-65
2022/08/30 00:35:59;;;;;;;3.10;2.47;;;;;;;;;;5097401;28;20609;-65
2022/08/30 00:38:26;;;;;;;3.17;2.70;;;;;;;;;;5097478;28;20223;-65
2022/08/30 00:40:55;;;;;;;3.17;2.70;;;;;;;;;;5077285;28;20206;-65
2022/08/30 00:43:25;;;;;;;2.85;2.60;;;;;;;;;;5077339;28;20208;-65
2022/08/30 00:45:52;;;;;;;4.38;2.60;;;;;;;;;;5076761;28;20237;-65
2022/08/30 00:48:20;;;;;;;2.65;2.45;;;;;;;;;;5076878;28;20200;-65
2022/08/30 00:50:49;;;;;;;3.05;2.58;;;;;;;;;;5076800;28;20295;-65
2022/08/30 00:53:17;;;;;;;2.95;2.40;;;;;;;;;;5076435;28;20671;-65
2022/08/30 00:55:45;;;;;;;2.50;2.30;;;;;;;;;;5076954;28;20204;-65
2022/08/30 00:58:18;;;;;;;3.90;2.30;;;;;;;;;;5076415;28;20227;-65
2022/08/30 01:00:46;;;;;;;2.30;2.10;;;;;;;;;;5077021;28;20242;-65
2022/08/30 01:03:14;;;;;;;2.25;2.05;;;;;;;;;;5076582;28;20295;-65
2022/08/30 01:05:42;;;;;;;2.50;2.22;;;;;;;;;;5076647;28;20204;-65
2022/08/30 01:08:09;;;;;;;2.60;2.40;;;;;;;;;;5095433;28;20200;-65
2022/08/30 01:10:37;;;;;;;1.98;1.80;;;;;;;;;;5097286;28;20203;-65
2022/08/30 01:13:05;;;;;;;2.58;2.35;;;;;;;;;;5096819;28;20210;-65
2022/08/30 01:15:34;;;;;;;2.60;2.40;;;;;;;;;;5097109;28;20214;-65
2022/08/30 01:18:01;;;;;;;2.08;1.92;;;;;;;;;;5097161;28;20223;-65
2022/08/30 01:20:32;;;;;;;2.70;2.30;;;;;;;;;;5095124;28;20461;-65
2022/08/30 01:23:05;;;;;;;2.30;2.10;;;;;;;;;;5097018;28;20222;-65
2022/08/30 01:25:32;;;;;;;2.90;2.40;;;;;;;;;;5096630;28;20215;-64
2022/08/30 01:28:02;;;;;;;2.65;2.45;;;;;;;;;;5100054;28;20238;-65
2022/08/30 01:30:29;;;;;;;3.05;2.17;;;;;;;;;;5101061;28;20210;-65
2022/08/30 01:32:58;;;;;;;2.88;2.40;;;;;;;;;;5100779;28;20210;-65
2022/08/30 01:35:25;;;;;;;2.28;2.08;;;;;;;;;;5081657;28;20596;-65
2022/08/30 01:37:52;;;;;;;2.83;2.30;;;;;;;;;;5080923;28;20228;-64
2022/08/30 01:40:22;;;;;;;2.50;2.30;;;;;;;;;;5080834;28;20215;-65
2022/08/30 01:42:49;;;;;;;2.40;2.20;;;;;;;;;;5080222;28;20581;-65
2022/08/30 01:45:16;;;;;;;2.80;2.60;;;;;;;;;;5080480;28;20212;-65
2022/08/30 01:47:44;;;;;;;2.70;2.33;;;;;;;;;;5080668;28;20211;-66
2022/08/30 01:50:12;;;;;;;3.13;2.50;;;;;;;;;;5080165;28;20311;-65
2022/08/30 01:52:40;;;;;;;2.78;2.58;;;;;;;;;;5071947;28;20666;-65
2022/08/30 01:55:09;;;;;;;3.10;2.20;;;;;;;;;;5080374;28;20204;-65
2022/08/30 01:57:38;;;;;;;2.72;2.53;;;;;;;;;;5080008;28;20243;-65
2022/08/30 02:00:06;;;;;;;3.30;2.45;;;;;;;;;;5080265;28;20578;-65
2022/08/30 02:02:33;;;;;;;2.85;2.30;;;;;;;;;;5088549;28;20785;-65
2022/08/30 02:05:01;;;;;;;2.75;2.50;;;;;;;;;;5079904;28;20205;-65
2022/08/30 02:07:28;;;;;;;3.35;2.42;;;;;;;;;;5080165;28;20487;-66
2022/08/30 02:09:56;;;;;;;2.83;2.53;;;;;;;;;;5080036;28;20204;-65
2022/08/30 02:12:24;;;;;;;2.90;2.42;;;;;;;;;;5079502;28;20223;-65
2022/08/30 02:14:53;;;;;;;2.58;2.22;;;;;;;;;;5079481;28;20216;-65
2022/08/30 02:17:20;;;;;;;2.53;2.33;;;;;;;;;;5078953;28;20231;-65
2022/08/30 02:19:48;;;;;;;2.78;2.50;;;;;;;;;;5079454;28;20204;-65
2022/08/30 02:22:16;;;;;;;2.60;2.40;;;;;;;;;;5079977;28;20212;-65
2022/08/30 02:24:43;;;;;;;2.67;2.05;;;;;;;;;;5079620;28;20211;-65
2022/08/30 02:27:10;;;;;;;2.28;2.03;;;;;;;;;;5079088;28;20615;-65
2022/08/30 02:29:38;;;;;;;3.08;2.40;;;;;;;;;;5094132;28;20215;-65
2022/08/30 02:32:06;;;;;;;2.60;2.17;;;;;;;;;;5099736;28;20204;-65
2022/08/30 02:34:34;;;;;;;2.60;2.40;;;;;;;;;;5092510;28;20204;-65
2022/08/30 02:37:01;;;;;;;2.28;2.08;;;;;;;;;;5079843;28;20243;-64
2022/08/30 02:39:29;;;;;;;2.25;2.05;;;;;;;;;;5079096;28;20208;-64
2022/08/30 02:41:56;;;;;;;2.30;2.10;;;;;;;;;;5079354;28;20491;-65
2022/08/30 02:44:23;;;;;;;3.22;2.40;;;;;;;;;;5079734;28;20219;-65
2022/08/30 02:46:51;;;;;;;2.88;2.60;;;;;;;;;;5078911;28;20236;-65
2022/08/30 02:49:20;;;;;;;2.53;2.25;;;;;;;;;;5079742;28;20311;-65
2022/08/30 02:51:47;;;;;;;2.88;2.30;;;;;;;;;;5079445;28;20212;-64
2022/08/30 02:54:18;;;;;;;3.13;2.55;;;;;;;;;;5079167;28;20211;-65
2022/08/30 02:56:46;;;;;;;2.72;1.92;;;;;;;;;;5090661;28;20243;-65
2022/08/30 02:59:14;;;;;;;2.78;2.20;;;;;;;;;;5099390;28;20214;-65
2022/08/30 03:01:42;;;;;;;2.35;2.15;;;;;;;;;;5085922;28;20201;-65
2022/08/30 03:04:10;;;;;;;3.42;2.30;;;;;;;;;;5079277;28;20218;-65
2022/08/30 03:06:38;;;;;;;2.85;2.40;;;;;;;;;;5079319;28;20295;-65
2022/08/30 03:09:06;;;;;;;2.65;2.45;;;;;;;;;;5079346;28;20798;-65
2022/08/30 03:11:33;;;;;;;3.20;2.53;;;;;;;;;;5079104;28;20208;-66
2022/08/30 03:14:01;;;;;;;2.30;2.10;;;;;;;;;;5078736;28;20314;-65
2022/08/30 03:16:28;;;;;;;2.15;1.95;;;;;;;;;;5078648;28;20299;-64
2022/08/30 03:18:55;;;;;;;2.35;2.03;;;;;;;;;;5078562;28;20239;-65
2022/08/30 03:21:23;;;;;;;3.88;2.38;;;;;;;;;;5079140;28;20291;-65
2022/08/30 03:23:52;;;;;;;2.42;2.22;;;;;;;;;;5088656;28;20214;-65
2022/08/30 03:26:19;;;;;;;2.42;2.10;;;;;;;;;;5083739;28;20235;-65
2022/08/30 03:28:47;;;;;;;2.28;2.08;;;;;;;;;;5078554;28;20200;-65
2022/08/30 03:31:14;;;;;;;2.50;2.20;;;;;;;;;;5078450;28;20208;-64
2022/08/30 03:33:42;;;;;;;3.55;2.25;;;;;;;;;;5078162;28;20291;-64
2022/08/30 03:36:10;;;;;;;2.53;2.33;;;;;;;;;;5078023;28;20205;-64
2022/08/30 03:38:38;;;;;;;2.63;2.33;;;;;;;;;;5078689;28;20315;-64
2022/08/30 03:41:07;;;;;;;3.33;2.50;;;;;;;;;;5077980;28;20204;-65
2022/08/30 03:43:34;;;;;;;2.22;2.03;;;;;;;;;;5078244;28;20211;-66
2022/08/30 03:46:01;;;;;;;3.13;2.22;;;;;;;;;;5077993;28;20322;-65
2022/08/30 03:48:29;;;;;;;2.33;2.13;;;;;;;;;;5077515;28;20200;-65
2022/08/30 03:50:57;;;;;;;2.60;2.30;;;;;;;;;;5085749;28;20571;-65
2022/08/30 03:53:25;;;;;;;3.35;2.35;;;;;;;;;;5098161;28;20235;-65
2022/08/30 03:55:52;;;;;;;3.13;2.45;;;;;;;;;;5098298;28;20488;-64
2022/08/30 03:58:21;;;;;;;2.38;2.08;;;;;;;;;;5097961;28;20683;-65
2022/08/30 04:00:48;;;;;;;2.60;2.25;;;;;;;;;;5097811;28;20203;-64
2022/08/30 04:03:17;;;;;;;2.60;2.40;;;;;;;;;;5097626;28;20203;-64
2022/08/30 04:05:44;;;;;;;2.45;2.20;;;;;;;;;;5098010;28;20233;-64
2022/08/30 04:08:12;;;;;;;2.30;2.10;;;;;;;;;;5096915;28;20583;-64
2022/08/30 04:10:40;;;;;;;2.33;2.13;;;;;;;;;;5097549;28;20227;-64
2022/08/30 04:13:07;;;;;;;2.50;2.15;;;;;;;;;;5097381;28;20215;-64
2022/08/30 04:15:36;;;;;;;2.45;2.20;;;;;;;;;;5097214;28;20208;-64
2022/08/30 04:18:03;;;;;;;2.50;2.30;;;;;;;;;;5088150;28;20231;-64
2022/08/30 04:20:31;;;;;;;2.38;2.08;;;;;;;;;;5077471;28;20295;-64
2022/08/30 04:22:58;;;;;;;2.60;2.30;;;;;;;;;;5076710;28;20204;-64
2022/08/30 04:25:26;;;;;;;2.40;2.20;;;;;;;;;;5076898;28;20200;-64
2022/08/30 04:27:54;;;;;;;2.15;2.00;;;;;;;;;;5076417;28;20201;-64
2022/08/30 04:30:22;;;;;;;2.95;2.40;;;;;;;;;;5076196;28;20303;-64
2022/08/30 04:32:50;;;;;;;2.25;2.05;;;;;;;;;;5075574;28;20200;-64
2022/08/30 04:35:18;;;;;;;3.08;2.40;;;;;;;;;;5075562;28;20302;-64
2022/08/30 04:37:45;;;;;;;2.67;2.22;;;;;;;;;;5077003;28;20239;-64
2022/08/30 04:40:14;;;;;;;2.53;2.33;;;;;;;;;;5075850;28;20211;-64
2022/08/30 04:42:42;;;;;;;2.53;2.33;;;;;;;;;;5076163;28;20204;-64
2022/08/30 04:45:12;;;;;;;3.00;2.65;;;;;;;;;;5076147;28;20208;-65
2022/08/30 04:47:39;;;;;;;3.08;2.55;;;;;;;;;;5075334;28;20200;-65
2022/08/30 04:50:09;;;;;;;2.92;2.60;;;;;;;;;;5075594;28;20303;-65
2022/08/30 04:52:36;;;;;;;3.72;2.30;;;;;;;;;;5075026;28;20204;-65
2022/08/30 04:55:04;;;;;;;3.10;2.58;;;;;;;;;;5075193;28;20196;-65
2022/08/30 04:57:32;;;;;;;2.47;2.25;;;;;;;;;;5074478;28;20234;-65
2022/08/30 04:59:59;;;;;;;3.15;2.25;;;;;;;;;;5074604;28;20751;-65
2022/08/30 05:02:26;;;;;;;3.03;2.28;;;;;;;;;;5073666;28;20204;-65
2022/08/30 05:07:40;;;;;;;2.53;2.33;;;;;;;;;;5073008;28;20258;-65
2022/08/30 05:10:08;;;;;;;4.53;2.40;;;;;;;;;;5073587;28;20204;-65
2022/08/30 05:12:35;;;;;;;2.38;2.17;;;;;;;;;;5077853;28;20224;-65
2022/08/30 05:15:03;;;;;;;2.38;2.17;;;;;;;;;;5094334;28;20305;-64
2022/08/30 05:17:30;;;;;;;3.20;2.17;;;;;;;;;;5094069;28;20206;-64
2022/08/30 05:19:58;;;;;;;2.40;2.20;;;;;;;;;;5093899;28;20812;-65
2022/08/30 05:22:25;;;;;;;2.78;2.47;;;;;;;;;;5090294;28;20219;-65
2022/08/30 05:24:54;;;;;;;3.13;2.70;;;;;;;;;;5093926;28;20219;-64
2022/08/30 05:27:21;;;;;;;2.67;2.47;;;;;;;;;;5093510;28;20215;-64
2022/08/30 05:29:49;;;;;;;2.80;2.50;;;;;;;;;;5092641;28;20204;-64
2022/08/30 05:32:16;;;;;;;3.05;2.25;;;;;;;;;;5090857;28;20192;-64
2022/08/30 05:34:44;;;;;;;2.72;2.50;;;;;;;;;;5093894;28;20264;-64
2022/08/30 05:37:11;;;;;;;2.75;2.28;;;;;;;;;;5094234;28;20205;-64
2022/08/30 05:39:40;;;;;;;2.58;2.38;;;;;;;;;;5093664;28;20231;-64
2022/08/30 05:42:09;;;;;;;2.50;2.22;;;;;;;;;;5074379;28;20204;-64
2022/08/30 05:44:36;;;;;;;2.63;2.28;;;;;;;;;;5073959;28;20205;-65
2022/08/30 05:47:03;;;;;;;2.70;2.47;;;;;;;;;;5073550;28;20506;-64
2022/08/30 05:49:31;;;;;;;2.60;2.35;;;;;;;;;;5073585;28;20207;-64
2022/08/30 05:51:58;;;;;;;2.92;2.50;;;;;;;;;;5076772;28;20196;-64
2022/08/30 05:54:25;;;;;;;2.40;2.20;;;;;;;;;;5090770;28;20204;-64
2022/08/30 05:56:52;;;;;;;3.15;2.40;;;;;;;;;;5092720;28;20204;-64
2022/08/30 05:59:21;;;;;;;2.65;2.40;;;;;;;;;;5091131;28;20621;-65
2022/08/30 06:01:50;;;;;;;2.83;2.55;;;;;;;;;;5093354;28;20207;-65
2022/08/30 06:04:18;;;;;;;2.78;2.58;;;;;;;;;;5080480;28;20617;-65
2022/08/30 06:06:46;;;;;;;3.03;2.70;;;;;;;;;;5070091;28;20208;-65
2022/08/30 06:09:14;;;;;;;2.75;2.55;;;;;;;;;;5080835;28;20192;-65
2022/08/30 06:11:42;;;;;;;2.88;2.63;;;;;;;;;;5083031;28;20192;-65
2022/08/30 06:14:10;;;;;;;3.00;2.78;;;;;;;;;;5084547;28;20208;-65
2022/08/30 06:16:39;;;;;;;3.03;2.72;;;;;;;;;;5082461;28;20482;-65
2022/08/30 06:19:09;;;;;;;2.80;2.60;;;;;;;;;;5081516;28;20215;-65
2022/08/30 06:21:38;;;;;;;3.35;2.75;;;;;;;;;;5089182;28;20485;-65
2022/08/30 06:24:06;;;;;;;3.00;2.70;;;;;;;;;;5095273;28;20213;-65
2022/08/30 06:26:37;;;;;;;2.95;2.75;;;;;;;;;;5096001;28;20332;-65
2022/08/30 06:29:05;;;;;;;3.05;2.80;;;;;;;;;;5096955;28;20598;-65
2022/08/30 06:31:32;;;;;;;2.90;2.70;;;;;;;;;;5091450;28;20662;-65
2022/08/30 06:34:02;;;;;;;2.70;2.50;;;;;;;;;;5090325;28;20283;-65
2022/08/30 06:36:30;;;;;;;2.92;2.70;;;;;;;;;;5097473;28;20203;-65
2022/08/30 06:38:59;;;;;;;2.65;2.45;;;;;;;;;;5096819;28;20489;-66
2022/08/30 06:41:27;;;;;;;3.35;2.83;;;;;;;;;;5095997;28;20647;-64
2022/08/30 06:43:55;;;;;;;3.20;2.90;;;;;;;;;;5096000;28;20481;-64
2022/08/30 06:46:23;;;;;;;3.05;2.70;;;;;;;;;;5095385;28;20234;-64
2022/08/30 06:48:51;;;;;;;3.00;2.70;;;;;;;;;;5095313;28;20295;-64
2022/08/30 06:51:22;;;;;;;3.88;3.00;;;;;;;;;;5094457;28;20223;-65
2022/08/30 06:53:50;;;;;;;3.08;2.78;;;;;;;;;;5095263;28;20203;-65
2022/08/30 06:56:18;;;;;;;3.00;2.70;;;;;;;;;;5094978;28;20195;-65
2022/08/30 06:58:46;;;;;;;2.92;2.72;;;;;;;;;;5093972;28;20293;-65
2022/08/30 07:01:13;;;;;;;3.42;2.72;;;;;;;;;;5093721;28;20204;-65
2022/08/30 07:03:41;;;;;;;3.15;2.85;;;;;;;;;;5093583;28;20501;-65
2022/08/30 07:06:09;;;;;;;3.88;2.90;;;;;;;;;;5094534;28;20195;-65
2022/08/30 07:08:38;;;;;;;3.15;2.88;;;;;;;;;;5094504;28;20198;-65
2022/08/30 07:11:06;;;;;;;3.10;2.78;;;;;;;;;;5092924;28;20203;-65
2022/08/30 07:13:33;;;;;;;3.45;2.90;;;;;;;;;;5093867;28;20301;-65
2022/08/30 07:16:01;;;;;;;2.85;2.65;;;;;;;;;;5095743;28;20208;-65
2022/08/30 07:21:15;;;;;;;2.83;2.60;;;;;;;;;;5094636;28;20586;-65
2022/08/30 07:23:44;;;;;;;3.45;2.83;;;;;;;;;;5095968;28;20242;-65
2022/08/30 07:26:13;;;;;;;3.10;2.80;;;;;;;;;;5091982;28;20196;-65
2022/08/30 07:28:40;;;;;;;3.10;2.90;;;;;;;;;;5093864;28;20199;-65
2022/08/30 07:31:08;;;;;;;3.25;2.95;;;;;;;;;;5093746;28;20214;-65
2022/08/30 07:33:36;;;;;;;3.42;2.67;;;;;;;;;;5093301;28;20211;-65
2022/08/30 07:36:05;;;;;;;3.40;2.88;;;;;;;;;;5093473;28;20209;-65
2022/08/30 07:38:32;;;;;;;2.50;2.30;;;;;;;;;;5092871;28;20272;-65
2022/08/30 07:41:01;;;;;;;3.72;3.05;;;;;;;;;;5094255;28;20230;-65
2022/08/30 07:43:29;;;;;;;3.25;2.88;;;;;;;;;;5093906;28;20214;-66
2022/08/30 07:46:02;;;;;;;3.67;3.17;;;;;;;;;;5093654;28;20250;-65
2022/08/30 07:48:32;;;;;;;3.30;3.00;;;;;;;;;;5096015;28;20191;-65
2022/08/30 07:51:00;;;;;;;4.03;2.92;;;;;;;;;;5094827;28;20293;-65
2022/08/30 07:53:28;;;;;;;4.07;3.05;;;;;;;;;;5090775;28;20203;-65
2022/08/30 07:55:55;;;;;;;3.40;3.10;;;;;;;;;;5078222;28;20210;-65
2022/08/30 07:58:24;;;;;;;4.10;3.53;;;;;;;;;;5093463;28;20619;-65
2022/08/30 08:00:52;;;;;;;3.50;3.10;;;;;;;;;;5092818;28;20204;-65
2022/08/30 08:03:19;;;;;;;5.18;3.33;;;;;;;;;;5092489;28;20203;-65
2022/08/30 08:05:47;;;;;;;4.15;3.25;;;;;;;;;;5092588;28;20207;-65
2022/08/30 08:08:14;;;;;;;3.70;3.40;;;;;;;;;;5092627;28;20207;-65
2022/08/30 08:10:42;;;;;;;3.63;3.25;;;;;;;;;;5093023;28;20211;-65
2022/08/30 08:13:10;;;;;;;3.50;2.83;;;;;;;;;;5093543;28;20227;-65
2022/08/30 08:15:39;;;;;;;4.03;3.10;;;;;;;;;;5094249;28;20261;-65
2022/08/30 08:18:07;;;;;;;5.28;3.28;;;;;;;;;;5093411;28;20211;-65
2022/08/30 08:20:35;;;;;;;3.75;3.22;;;;;;;;;;5093956;28;20645;-65
2022/08/30 08:23:03;;;;;;;3.17;2.88;;;;;;;;;;5075306;28;20500;-65
2022/08/30 08:25:31;;;;;;;3.85;3.10;;;;;;;;;;5072937;28;20204;-65
2022/08/30 08:27:59;;;;;;;3.55;3.25;;;;;;;;;;5072300;28;20299;-65
2022/08/30 08:30:26;;;;;;;3.50;3.20;;;;;;;;;;5071638;28;20208;-65
2022/08/30 08:32:55;;;;;;;3.97;3.20;;;;;;;;;;5073409;28;20219;-65
2022/08/30 08:35:23;;;;;;;3.20;2.80;;;;;;;;;;5072501;28;20491;-65
2022/08/30 08:37:50;;;;;;;3.30;3.00;;;;;;;;;;5071882;28;20208;-65
2022/08/30 08:40:20;;;;;;;3.67;2.97;;;;;;;;;;5072086;28;20227;-65
2022/08/30 08:42:52;;;;;;;3.45;3.15;;;;;;;;;;5072236;28;20323;-65
2022/08/30 08:45:21;;;;;;;3.78;3.17;;;;;;;;;;5070821;28;20680;-65
2022/08/30 08:47:54;;;;;;;3.33;2.95;;;;;;;;;;5071878;28;20568;-65
2022/08/30 08:50:23;;;;;;;3.90;3.05;;;;;;;;;;5088431;28;20242;-65
2022/08/30 08:55:40;;;;;;;3.17;2.88;;;;;;;;;;5091675;28;20194;-65
2022/08/30 08:58:08;;;;;;;4.32;3.15;;;;;;;;;;5089977;28;20196;-65
2022/08/30 09:00:35;;;;;;;3.15;2.85;;;;;;;;;;5092655;28;20219;-65
2022/08/30 09:03:04;;;;;;;3.33;2.97;;;;;;;;;;5093829;28;20213;-65
2022/08/30 09:05:37;;;;;;;3.67;2.85;;;;;;;;;;5093785;28;20292;-65
2022/08/30 09:08:05;;;;;;;3.15;2.85;;;;;;;;;;5092656;28;20214;-65
2022/08/30 09:10:33;;;;;;;3.30;3.00;;;;;;;;;;5091441;28;20584;-65
2022/08/30 09:13:01;;;;;;;3.83;3.00;;;;;;;;;;5092205;28;20265;-66
2022/08/30 09:15:29;;;;;;;4.97;2.88;;;;;;;;;;5092785;28;20336;-65
2022/08/30 09:17:58;;;;;;;3.10;2.78;;;;;;;;;;5076131;28;20294;-65
2022/08/30 09:20:27;;;;;;;3.70;3.03;;;;;;;;;;5071596;28;20224;-65
2022/08/30 09:22:56;;;;;;;3.67;3.13;;;;;;;;;;5071464;28;20200;-65
2022/08/30 09:25:25;;;;;;;3.13;2.67;;;;;;;;;;5071180;28;20471;-65
2022/08/30 09:27:54;;;;;;;3.97;2.70;;;;;;;;;;5069766;28;20500;-65
2022/08/30 09:30:24;;;;;;;3.42;2.90;;;;;;;;;;5070406;28;20211;-65
2022/08/30 09:32:52;;;;;;;3.40;3.08;;;;;;;;;;5069575;28;20196;-65
2022/08/30 09:35:23;;;;;;;2.72;2.45;;;;;;;;;;5069590;28;20219;-66
2022/08/30 09:37:53;;;;;;;3.63;2.90;;;;;;;;;;5069596;28;20208;-65
2022/08/30 09:40:27;;;;;;;3.13;2.70;;;;;;;;;;5070242;28;20502;-66
2022/08/30 09:43:03;;;;;;;2.65;2.45;;;;;;;;;;5069759;28;20454;-65
2022/08/30 09:45:32;;;;;;;2.92;2.63;;;;;;;;;;5082125;28;20231;-65
2022/08/30 09:47:59;;;;;;;2.60;2.40;;;;;;;;;;5091308;28;20204;-65
2022/08/30 09:50:28;;;;;;;4.03;2.95;;;;;;;;;;5095019;28;20199;-65
2022/08/30 09:52:58;;;;;;;2.88;2.50;;;;;;;;;;5096889;28;20595;-66
2022/08/30 09:55:38;;;;;;;3.20;2.88;;;;;;;;;;5096849;28;20214;-65
2022/08/30 09:58:10;;;;;;;3.20;2.90;;;;;;;;;;5089768;28;20279;-65
2022/08/30 10:00:41;;;;;;;3.20;2.63;;;;;;;;;;5073681;28;20220;-66
2022/08/30 10:03:16;;;;;;;3.75;2.90;;;;;;;;;;5073664;28;20207;-65
2022/08/30 10:05:53;;;;;;;3.45;2.63;;;;;;;;;;5072124;28;20537;-65
2022/08/30 10:08:26;;;;;;;3.25;2.95;;;;;;;;;;5073247;28;20204;-65
2022/08/30 10:10:56;;;;;;;3.75;3.05;;;;;;;;;;5073284;28;20212;-65
2022/08/30 10:13:32;;;;;;;3.20;2.60;;;;;;;;;;5074618;28;20196;-66
2022/08/30 10:16:05;;;;;;;3.38;2.70;;;;;;;;;;5074355;28;20207;-65
2022/08/30 10:18:35;;;;;;;2.92;2.63;;;;;;;;;;5074217;28;20254;-65
2022/08/30 10:21:07;;;;;;;3.30;3.00;;;;;;;;;;5074050;28;20711;-65
2022/08/30 10:23:38;;;;;;;3.13;2.83;;;;;;;;;;5072623;28;20219;-65
2022/08/30 10:26:12;;;;;;;3.00;2.70;;;;;;;;;;5072764;28;20204;-65
2022/08/30 10:28:43;;;;;;;3.67;2.88;;;;;;;;;;5073125;28;20203;-65
2022/08/30 10:31:13;;;;;;;3.25;2.83;;;;;;;;;;5073327;28;20200;-65
2022/08/30 10:33:43;;;;;;;3.13;2.75;;;;;;;;;;5072937;28;20586;-65
2022/08/30 10:36:11;;;;;;;3.05;2.75;;;;;;;;;;5073493;28;20212;-65
2022/08/30 10:38:40;;;;;;;3.25;2.95;;;;;;;;;;5072755;28;20200;-65
2022/08/30 10:41:12;;;;;;;2.75;2.50;;;;;;;;;;5082415;28;20211;-65
2022/08/30 10:43:46;;;;;;;3.80;2.90;;;;;;;;;;5084853;28;20444;-65
2022/08/30 10:46:17;;;;;;;3.20;2.90;;;;;;;;;;5091973;28;20322;-65
2022/08/30 10:48:45;;;;;;;3.03;2.72;;;;;;;;;;5092068;28;20195;-65
2022/08/30 10:51:15;;;;;;;2.95;2.70;;;;;;;;;;5092591;28;20211;-65
2022/08/30 10:53:45;;;;;;;3.33;2.88;;;;;;;;;;5091726;28;20199;-65
2022/08/30 10:56:15;;;;;;;2.75;2.55;;;;;;;;;;5092424;28;20200;-65
2022/08/30 10:58:43;;;;;;;3.28;2.63;;;;;;;;;;5093090;28;20591;-65
2022/08/30 11:01:21;;;;;;;3.40;2.92;;;;;;;;;;5091294;28;20480;-65
2022/08/30 11:04:09;;;;;;;3.17;2.55;;;;;;;;;;5092745;28;20203;-65
2022/08/30 11:06:40;;;;;;;3.58;3.22;;;;;;;;;;5084485;28;20306;-65
2022/08/30 11:09:28;;;;;;;3.00;2.60;;;;;;;;;;5073362;28;20200;-65
2022/08/30 11:12:22;;;;;;;2.95;2.63;;;;;;;;;;5060396;28;20498;-65
2022/08/30 11:14:52;;;;;;;2.88;2.67;;;;;;;;;;5029962;28;20218;-65
2022/08/30 11:17:31;;;;;;;3.80;2.88;;;;;;;;;;5071781;28;20329;-65
2022/08/30 11:20:00;;;;;;;3.25;2.92;;;;;;;;;;5070802;28;20227;-65
2022/08/30 11:22:29;;;;;;;3.45;2.95;;;;;;;;;;5071378;28;20721;-65
2022/08/30 11:25:06;;;;;;;2.60;2.40;;;;;;;;;;5071769;28;20208;-65
2022/08/30 11:27:41;;;;;;;3.25;2.70;;;;;;;;;;5069985;28;20211;-66
2022/08/30 11:30:27;;;;;;;2.97;2.70;;;;;;;;;;5070553;28;20443;-65
2022/08/30 11:33:01;;;;;;;3.10;2.80;;;;;;;;;;5063091;28;20204;-65
2022/08/30 11:35:39;;;;;;;3.17;2.88;;;;;;;;;;5074574;28;20209;-65
2022/08/30 11:38:13;;;;;;;2.90;2.60;;;;;;;;;;5091251;28;20619;-65
2022/08/30 11:40:47;;;;;;;3.17;2.88;;;;;;;;;;5091619;28;20219;-65
2022/08/30 11:43:33;;;;;;;3.42;3.10;;;;;;;;;;5089931;28;20203;-65
2022/08/30 11:46:14;;;;;;;3.20;2.90;;;;;;;;;;5084905;28;20509;-65
2022/08/30 11:48:50;;;;;;;2.90;2.60;;;;;;;;;;5091825;28;20203;-65
2022/08/30 11:51:26;;;;;;;3.63;2.80;;;;;;;;;;5092045;28;20199;-65
2022/08/30 11:53:59;;;;;;;2.95;2.60;;;;;;;;;;5089893;28;20230;-65
2022/08/30 11:56:29;;;;;;;3.20;2.90;;;;;;;;;;5089817;28;20207;-65
2022/08/30 11:58:58;;;;;;;3.92;2.88;;;;;;;;;;5091346;28;20456;-65
2022/08/30 12:01:34;;;;;;;3.55;3.10;;;;;;;;;;5082969;28;20216;-65
2022/08/30 12:04:04;;;;;;;3.28;2.78;;;;;;;;;;5069807;28;20299;-65
2022/08/30 12:06:49;;;;;;;3.28;2.97;;;;;;;;;;5070615;28;20295;-65
2022/08/30 12:09:41;;;;;;;2.85;2.65;;;;;;;;;;5071206;28;20637;-65
2022/08/30 12:12:11;;;;;;;3.35;3.05;;;;;;;;;;5048945;28;20208;-65
2022/08/30 12:14:50;;;;;;;3.30;3.00;;;;;;;;;;5070916;28;20402;-65
2022/08/30 12:20:19;;;;;;;3.42;3.10;;;;;;;;;;5069743;28;20416;-65
2022/08/30 12:22:47;;;;;;;3.28;2.97;;;;;;;;;;5068709;28;20211;-65
2022/08/30 12:25:17;;;;;;;3.25;2.95;;;;;;;;;;5069661;28;20196;-65
2022/08/30 12:27:45;;;;;;;3.65;2.90;;;;;;;;;;5069961;28;20337;-65
2022/08/30 12:30:12;;;;;;;2.97;2.70;;;;;;;;;;5077260;28;20199;-65
2022/08/30 12:32:44;;;;;;;3.22;2.95;;;;;;;;;;5081251;28;20207;-65
2022/08/30 12:35:18;;;;;;;4.57;3.17;;;;;;;;;;5089640;28;20231;-65
2022/08/30 12:37:55;;;;;;;3.10;2.90;;;;;;;;;;5088332;28;20222;-65
2022/08/30 12:40:24;;;;;;;3.88;3.10;;;;;;;;;;5090093;28;20446;-65
2022/08/30 12:42:52;;;;;;;3.30;2.42;;;;;;;;;;5088150;28;20564;-65
2022/08/30 12:45:21;;;;;;;3.30;3.00;;;;;;;;;;5088325;28;20217;-65
2022/08/30 12:47:50;;;;;;;3.05;2.75;;;;;;;;;;5089470;28;20235;-65
2022/08/30 12:50:20;;;;;;;3.30;3.00;;;;;;;;;;5088556;28;20630;-66
2022/08/30 12:52:56;;;;;;;3.20;2.90;;;;;;;;;;5088236;28;20211;-65
2022/08/30 12:55:25;;;;;;;3.00;2.70;;;;;;;;;;5089477;28;20434;-65
2022/08/30 12:57:57;;;;;;;3.17;2.90;;;;;;;;;;5088443;28;20497;-65
2022/08/30 13:00:26;;;;;;;2.80;2.60;;;;;;;;;;5088884;28;20641;-65
2022/08/30 13:02:54;;;;;;;3.53;3.05;;;;;;;;;;5088261;28;20298;-65
2022/08/30 13:05:33;;;;;;;3.13;2.90;;;;;;;;;;5090507;28;20207;-65
2022/08/30 13:08:12;;;;;;;3.83;3.00;;;;;;;;;;5089799;28;20210;-65
2022/08/30 13:10:49;;;;;;;3.50;2.78;;;;;;;;;;5089749;28;20413;-65
2022/08/30 13:13:27;;;;;;;2.92;2.70;;;;;;;;;;5089695;28;20207;-65
2022/08/30 13:15:54;;;;;;;3.00;2.70;;;;;;;;;;5089835;28;20493;-65
2022/08/30 13:18:28;;;;;;;3.10;2.80;;;;;;;;;;5089615;28;20239;-65
2022/08/30 13:21:10;;;;;;;3.53;3.10;;;;;;;;;;5089702;28;20250;-65
2022/08/30 13:23:39;;;;;;;4.22;3.13;;;;;;;;;;5074210;28;20221;-65
2022/08/30 13:26:07;;;;;;;3.55;3.25;;;;;;;;;;5095219;28;20214;-65
2022/08/30 13:28:43;;;;;;;3.38;3.08;;;;;;;;;;5093832;28;20219;-65
2022/08/30 13:31:10;;;;;;;2.85;2.65;;;;;;;;;;5094719;28;20464;-65
2022/08/30 13:33:38;;;;;;;3.47;2.80;;;;;;;;;;5094846;28;20199;-65
2022/08/30 13:36:05;;;;;;;3.15;2.90;;;;;;;;;;5094588;28;20468;-66
2022/08/30 13:38:33;;;;;;;3.67;3.00;;;;;;;;;;5095197;28;20508;-66
2022/08/30 13:41:02;;;;;;;2.88;2.67;;;;;;;;;;5096027;28;20595;-66
2022/08/30 13:43:29;;;;;;;3.08;2.78;;;;;;;;;;5093754;28;20200;-66
2022/08/30 13:45:57;;;;;;;3.28;2.97;;;;;;;;;;5093428;28;20246;-65
2022/08/30 13:48:24;;;;;;;3.72;2.65;;;;;;;;;;5093992;28;20252;-65
2022/08/30 13:50:52;;;;;;;3.33;3.03;;;;;;;;;;5091016;28;20188;-65
2022/08/30 13:53:19;;;;;;;3.20;3.00;;;;;;;;;;5073477;28;20299;-65
2022/08/30 13:55:47;;;;;;;2.90;2.70;;;;;;;;;;5073814;28;20204;-65
2022/08/30 13:58:16;;;;;;;3.33;3.00;;;;;;;;;;5074355;28;20213;-65
2022/08/30 14:00:44;;;;;;;3.13;2.90;;;;;;;;;;5072790;28;20220;-65
2022/08/30 14:03:12;;;;;;;3.35;2.92;;;;;;;;;;5073659;28;20331;-65
2022/08/30 14:05:39;;;;;;;3.50;3.20;;;;;;;;;;5072839;28;20223;-65
2022/08/30 14:08:08;;;;;;;2.95;2.65;;;;;;;;;;5073273;28;20656;-66
2022/08/30 14:10:36;;;;;;;3.05;2.63;;;;;;;;;;5073052;28;20591;-65
2022/08/30 14:13:04;;;;;;;2.75;2.55;;;;;;;;;;5071702;28;20207;-65
2022/08/30 14:15:33;;;;;;;3.83;3.08;;;;;;;;;;5073440;28;20200;-66
2022/08/30 14:18:01;;;;;;;2.90;2.70;;;;;;;;;;5077586;28;20206;-66
2022/08/30 14:20:28;;;;;;;2.78;2.58;;;;;;;;;;5094016;28;20388;-66
2022/08/30 14:22:56;;;;;;;2.72;2.53;;;;;;;;;;5094548;28;20555;-65
2022/08/30 14:25:23;;;;;;;3.80;3.15;;;;;;;;;;5092590;28;20215;-65
2022/08/30 14:27:51;;;;;;;2.97;2.78;;;;;;;;;;5092782;28;20206;-65
2022/08/30 14:30:18;;;;;;;2.90;2.70;;;;;;;;;;5093928;28;20440;-66
2022/08/30 14:32:47;;;;;;;3.50;2.83;;;;;;;;;;5093873;28;20203;-65
2022/08/30 14:35:17;;;;;;;3.40;3.10;;;;;;;;;;5092491;28;20204;-65
2022/08/30 14:37:45;;;;;;;3.28;2.97;;;;;;;;;;5086577;28;20207;-65
2022/08/30 14:40:14;;;;;;;4.05;3.40;;;;;;;;;;5095304;28;20271;-65
2022/08/30 14:42:42;;;;;;;3.40;3.20;;;;;;;;;;5094235;28;20207;-65
2022/08/30 14:45:09;;;;;;;4.75;3.35;;;;;;;;;;5090812;28;20587;-65
2022/08/30 14:47:37;;;;;;;3.40;3.10;;;;;;;;;;5073114;28;20237;-65
2022/08/30 14:50:07;;;;;;;2.95;2.75;;;;;;;;;;5071705;28;20205;-66
2022/08/30 14:52:34;;;;;;;3.65;3.00;;;;;;;;;;5072073;28;20198;-65
2022/08/30 14:55:03;;;;;;;3.67;3.15;;;;;;;;;;5073022;28;20215;-65
2022/08/30 14:57:31;;;;;;;3.47;3.17;;;;;;;;;;5072452;28;20694;-65
2022/08/30 14:59:59;;;;;;;3.67;3.38;;;;;;;;;;5070329;28;20216;-65
2022/08/30 15:02:26;;;;;;;3.30;3.00;;;;;;;;;;5072627;28;20232;-65
2022/08/30 15:04:54;;;;;;;3.00;2.80;;;;;;;;;;5072840;28;20216;-66
2022/08/30 15:07:22;;;;;;;3.20;2.90;;;;;;;;;;5070848;28;20446;-66